Time;durP1;ratioP1;P1;durP2;ratioP2;P2;SDS_P1;SDS_P2;PMS_P1;PMS_P2;Temp;Humidity;BMP_temperature;BMP_pressure;BME280_temperature;BME280_humidity;BME280_pressure;Samples;Min_cycle;Max_cycle;Signal;HPM_P1;HPM_P2
2023/11/20 00:00:18;;;;;;;0.00;0.00;;;;;;;9.70;84.64;100200.25;15711080;28;20075;-48
2023/11/20 00:07:53;;;;;;;0.85;0.25;;;;;;;9.60;85.29;100201.75;15727870;28;20056;-50
2023/11/20 00:15:28;;;;;;;0.00;0.00;;;;;;;9.85;84.20;100191.06;15724430;28;20039;-49
2023/11/20 00:23:06;;;;;;;0.50;0.50;;;;;;;9.74;84.77;100183.72;15727430;28;20055;-49
2023/11/20 00:30:41;;;;;;;0.00;0.00;;;;;;;9.89;83.73;100182.38;15727409;28;20044;-49
2023/11/20 00:38:14;;;;;;;0.30;0.30;;;;;;;9.74;84.45;100187.22;15727550;28;20043;-49
2023/11/20 00:45:50;;;;;;;0.80;0.40;;;;;;;9.92;84.27;100173.06;15713758;28;20044;-49
2023/11/20 00:53:27;;;;;;;0.00;0.00;;;;;;;9.78;83.63;100172.34;15714099;28;20037;-52
2023/11/20 01:01:04;;;;;;;1.55;1.23;;;;;;;9.92;83.06;100159.66;15711629;28;20044;-51
2023/11/20 01:08:37;;;;;;;0.08;0.08;;;;;;;9.63;84.30;100159.28;15723297;28;20044;-49
2023/11/20 01:16:13;;;;;;;0.10;0.05;;;;;;;9.38;85.80;100169.16;15721991;28;20040;-50
2023/11/20 01:23:46;;;;;;;0.00;0.00;;;;;;;9.55;84.68;100167.56;15722582;28;20064;-49
2023/11/20 01:31:21;;;;;;;0.00;0.00;;;;;;;9.47;85.36;100167.88;15741774;28;20045;-49
2023/11/20 01:38:55;;;;;;;0.00;0.00;;;;;;;9.78;83.89;100160.81;15740718;28;20041;-47
2023/11/20 01:46:31;;;;;;;0.00;0.00;;;;;;;10.05;83.17;100156.84;15722022;28;20091;-47
2023/11/20 01:54:05;;;;;;;0.30;0.30;;;;;;;9.78;83.85;100148.22;15718687;28;20033;-48
2023/11/20 02:01:41;;;;;;;0.00;0.00;;;;;;;9.57;84.47;100146.75;15722314;28;20147;-47
2023/11/20 02:09:16;;;;;;;0.00;0.00;;;;;;;9.70;84.80;100141.31;15704505;28;20128;-48
2023/11/20 02:16:52;;;;;;;0.00;0.00;;;;;;;9.92;84.18;100138.22;15716745;28;20044;-48
2023/11/20 02:24:27;;;;;;;0.00;0.00;;;;;;;9.71;85.23;100136.75;15717847;28;20028;-48
2023/11/20 02:32:02;;;;;;;0.00;0.00;;;;;;;9.58;85.18;100123.47;15719818;28;20041;-48
2023/11/20 02:39:39;;;;;;;0.00;0.00;;;;;;;9.95;83.74;100119.81;15720753;28;20059;-47
2023/11/20 02:47:14;;;;;;;0.00;0.00;;;;;;;10.02;83.99;100109.03;15719853;28;20514;-50
2023/11/20 02:54:48;;;;;;;0.00;0.00;;;;;;;9.67;85.77;100096.19;15719146;28;20094;-47
2023/11/20 03:02:22;;;;;;;0.00;0.00;;;;;;;9.78;85.59;100097.31;15736411;28;20542;-49
2023/11/20 03:09:56;;;;;;;0.20;0.20;;;;;;;9.87;84.43;100093.31;15715876;28;20037;-47
2023/11/20 03:17:31;;;;;;;;;;;;;;;10.07;83.82;100086.91;15713517;28;20123;-48
2023/11/20 03:25:06;;;;;;;0.43;0.43;;;;;;;10.07;83.79;100074.34;15709372;28;19970;-48
2023/11/20 03:32:42;;;;;;;0.05;0.05;;;;;;;9.87;84.92;100073.72;15730983;28;20048;-48
2023/11/20 03:40:15;;;;;;;0.00;0.00;;;;;;;9.70;85.43;100078.84;15711720;28;20510;-48
2023/11/20 03:47:50;;;;;;;;;;;;;;;9.96;84.03;100073.19;15713839;28;20047;-48
2023/11/20 03:55:24;;;;;;;0.00;0.00;;;;;;;9.71;85.18;100067.09;15714592;28;19924;-49
2023/11/20 04:03:00;;;;;;;0.00;0.00;;;;;;;9.61;85.73;100062.22;15732296;28;20071;-49
2023/11/20 04:10:33;;;;;;;0.00;0.00;;;;;;;9.84;84.79;100050.88;15732766;28;20509;-47
2023/11/20 04:18:09;;;;;;;0.20;0.20;;;;;;;9.78;85.24;100051.75;15730068;28;20040;-47
2023/11/20 04:25:43;;;;;;;0.00;0.00;;;;;;;9.92;84.77;100044.38;15713600;28;20033;-49
2023/11/20 04:33:20;;;;;;;0.00;0.00;;;;;;;9.64;85.16;100034.97;15724970;28;20044;-47
2023/11/20 04:40:54;;;;;;;0.00;0.00;;;;;;;9.61;85.89;100023.91;15731844;28;20104;-48
2023/11/20 04:48:29;;;;;;;0.00;0.00;;;;;;;9.92;84.65;100006.84;15721810;28;20070;-49
2023/11/20 04:56:07;;;;;;;0.00;0.00;;;;;;;9.72;84.96;100004.41;15725851;28;20110;-48
2023/11/20 05:03:43;;;;;;;0.00;0.00;;;;;;;9.57;85.01;100007.44;15726523;28;20036;-47
2023/11/20 05:11:16;;;;;;;0.00;0.00;;;;;;;9.74;84.86;99996.13;15711331;28;20029;-50
2023/11/20 05:18:51;;;;;;;0.00;0.00;;;;;;;9.89;84.99;100000.09;15724517;28;20048;-52
2023/11/20 05:26:24;;;;;;;1.30;0.30;;;;;;;10.11;83.85;99999.63;15730994;28;20128;-47
2023/11/20 05:33:59;;;;;;;0.00;0.00;;;;;;;9.83;84.32;100010.88;15729349;28;20079;-51
2023/11/20 05:41:32;;;;;;;0.00;0.00;;;;;;;10.02;84.46;100007.16;15711906;28;20041;-52
2023/11/20 05:49:09;;;;;;;0.00;0.00;;;;;;;9.51;86.06;100008.31;15729330;28;20098;-50
2023/11/20 05:56:43;;;;;;;0.00;0.00;;;;;;;9.68;86.67;100005.88;15739827;28;20045;-49
2023/11/20 06:04:21;;;;;;;0.00;0.00;;;;;;;10.03;85.88;100011.47;15740528;28;20071;-48
2023/11/20 06:11:54;;;;;;;0.00;0.00;;;;;;;9.53;87.65;100019.63;15739168;28;20558;-49
2023/11/20 06:19:29;;;;;;;;;;;;;;;9.87;86.54;100017.44;15719570;28;20145;-49
2023/11/20 06:27:02;;;;;;;0.00;0.00;;;;;;;10.24;84.92;100029.00;15738221;28;19920;-53
2023/11/20 06:34:37;;;;;;;;;;;;;;;10.30;84.78;100028.06;15739558;28;20137;-48
2023/11/20 06:42:10;;;;;;;0.00;0.00;;;;;;;10.28;84.74;100037.41;15738690;28;19927;-49
2023/11/20 06:49:45;;;;;;;;;;;;;;;10.41;83.61;100046.13;15738210;28;20052;-49
2023/11/20 06:57:19;;;;;;;0.00;0.00;;;;;;;10.62;82.48;100042.09;15728090;28;19960;-47
2023/11/20 07:04:55;;;;;;;;;;;;;;;9.92;84.72;100047.06;15735344;28;20083;-47
2023/11/20 07:12:29;;;;;;;0.00;0.00;;;;;;;10.67;82.84;100060.22;15735053;28;19966;-47
2023/11/20 07:20:08;;;;;;;0.00;0.00;;;;;;;10.46;83.63;100059.66;15734645;28;20044;-47
2023/11/20 07:27:42;;;;;;;0.00;0.00;;;;;;;10.30;85.06;100057.59;15717509;28;20075;-51
2023/11/20 07:35:21;;;;;;;0.00;0.00;;;;;;;10.40;83.52;100065.94;15789329;23;20043;-50
2023/11/20 07:42:57;;;;;;;0.00;0.00;;;;;;;10.77;83.48;100078.44;15782592;28;20083;-49
2023/11/20 07:50:31;;;;;;;;;;;;;;;10.23;84.54;100075.59;15799860;28;20127;-51
2023/11/20 07:58:06;;;;;;;0.00;0.00;;;;;;;10.70;83.90;100074.00;15801212;28;19927;-52
2023/11/20 08:05:44;;;;;;;0.00;0.00;;;;;;;10.38;84.53;100073.38;15798287;28;20072;-51
2023/11/20 08:13:18;;;;;;;0.00;0.00;;;;;;;10.73;83.55;100080.78;15779738;28;20039;-50
2023/11/20 08:20:55;;;;;;;0.00;0.00;;;;;;;10.46;83.83;100054.28;15795414;28;20060;-50
2023/11/20 08:28:29;;;;;;;0.00;0.00;;;;;;;10.37;85.41;100087.84;15788078;28;20062;-52
2023/11/20 08:36:05;;;;;;;0.35;0.10;;;;;;;10.64;84.50;100090.22;15798488;28;20036;-51
2023/11/20 08:43:39;;;;;;;0.00;0.00;;;;;;;10.52;86.33;100092.00;15795361;28;20044;-51
2023/11/20 08:51:14;;;;;;;0.00;0.00;;;;;;;10.64;85.38;100101.75;15795990;28;20097;-52
2023/11/20 08:58:48;;;;;;;0.47;0.47;;;;;;;11.20;84.07;100102.44;15798478;28;20052;-50
2023/11/20 09:06:23;;;;;;;0.45;0.35;;;;;;;11.06;84.18;100103.69;15798871;28;20084;-51
2023/11/20 09:13:57;;;;;;;0.00;0.00;;;;;;;10.66;84.42;100056.72;15798689;28;20561;-51
2023/11/20 09:21:32;;;;;;;0.00;0.00;;;;;;;11.04;85.21;100101.19;15798532;28;20405;-51
2023/11/20 09:29:07;;;;;;;0.30;0.30;;;;;;;11.21;84.18;100104.06;15807343;28;20412;-51
2023/11/20 09:36:44;;;;;;;0.00;0.00;;;;;;;11.08;84.41;100104.25;15812713;28;20036;-50
2023/11/20 09:44:23;;;;;;;0.00;0.00;;;;;;;11.33;83.66;100104.91;15813580;28;20070;-50
2023/11/20 09:52:00;;;;;;;0.00;0.00;;;;;;;11.67;83.19;100097.13;15811254;28;20044;-51
2023/11/20 09:59:34;;;;;;;0.00;0.00;;;;;;;11.24;83.48;100098.22;15809613;28;20491;-51
2023/11/20 10:07:14;;;;;;;0.00;0.00;;;;;;;11.60;82.14;100099.09;15790355;28;20048;-52
2023/11/20 10:14:53;;;;;;;0.00;0.00;;;;;;;11.46;83.03;100098.50;15782176;28;20036;-52
2023/11/20 10:22:27;;;;;;;0.00;0.00;;;;;;;11.81;81.78;100090.47;15809861;28;20481;-52
2023/11/20 10:30:03;;;;;;;0.00;0.00;;;;;;;11.69;82.16;100090.44;15786062;28;20410;-52
2023/11/20 10:37:53;;;;;;;0.00;0.00;;;;;;;11.97;80.74;100092.44;15818469;28;20044;-53
2023/11/20 10:45:27;;;;;;;0.00;0.00;;;;;;;11.36;83.59;100095.56;15803907;28;20090;-52
2023/11/20 10:53:06;;;;;;;;;;;;;;;11.61;83.39;100096.19;15804798;28;20032;-50
2023/11/20 11:00:40;;;;;;;0.00;0.00;;;;;;;11.68;83.12;100091.50;15803785;28;20106;-51
2023/11/20 11:08:16;;;;;;;0.00;0.00;;;;;;;11.97;82.85;100088.94;15802960;28;20525;-52
2023/11/20 11:15:53;;;;;;;0.00;0.00;;;;;;;11.63;82.99;100093.25;15802693;28;20048;-51
2023/11/20 11:23:45;;;;;;;0.00;0.00;;;;;;;11.61;82.65;100088.13;15794950;28;20078;-52
2023/11/20 11:31:22;;;;;;;0.00;0.00;;;;;;;11.61;83.29;100087.28;15796551;28;20405;-54
2023/11/20 11:39:09;;;;;;;0.00;0.00;;;;;;;11.89;82.33;100082.06;15799732;28;20052;-50
2023/11/20 11:46:44;;;;;;;0.00;0.00;;;;;;;11.98;82.10;100082.50;15797134;28;20237;-52
2023/11/20 11:54:26;;;;;;;0.00;0.00;;;;;;;11.95;81.60;100072.25;15800842;28;20032;-50
2023/11/20 12:02:00;;;;;;;0.00;0.00;;;;;;;11.91;82.03;100066.50;15778383;28;20093;-53
2023/11/20 12:09:56;;;;;;;0.00;0.00;;;;;;;12.24;81.23;100082.00;15797205;28;20060;-51
2023/11/20 12:17:31;;;;;;;0.00;0.00;;;;;;;12.32;80.66;100069.25;15799971;28;20039;-51
2023/11/20 12:25:07;;;;;;;0.00;0.00;;;;;;;12.28;80.55;100079.66;15777534;28;20056;-50
2023/11/20 12:32:41;;;;;;;0.00;0.00;;;;;;;12.46;80.63;100070.63;15797692;28;20046;-51
2023/11/20 12:40:17;;;;;;;0.00;0.00;;;;;;;12.48;80.16;100071.19;15798831;28;20453;-50
2023/11/20 12:47:51;;;;;;;0.00;0.00;;;;;;;12.17;80.72;100070.56;15795377;28;20367;-50
2023/11/20 12:55:28;;;;;;;0.00;0.00;;;;;;;12.28;81.52;100066.22;15798960;28;20036;-51
2023/11/20 13:03:03;;;;;;;0.55;0.35;;;;;;;12.47;80.78;100069.56;15806145;28;20499;-50
2023/11/20 13:10:38;;;;;;;0.00;0.00;;;;;;;11.92;82.52;100056.56;15783005;28;20075;-49
2023/11/20 13:18:16;;;;;;;0.52;0.52;;;;;;;11.91;82.61;100065.69;15807091;28;20128;-50
2023/11/20 13:25:52;;;;;;;0.00;0.00;;;;;;;11.49;82.93;100057.72;15806162;28;20064;-48
2023/11/20 13:33:27;;;;;;;0.00;0.00;;;;;;;11.54;83.35;100063.22;15783538;28;20047;-48
2023/11/20 13:41:03;;;;;;;0.00;0.00;;;;;;;11.91;81.77;100049.56;15811164;28;20482;-47
2023/11/20 13:48:38;;;;;;;0.30;0.30;;;;;;;11.64;82.70;100054.56;15809511;28;20169;-48
2023/11/20 13:56:18;;;;;;;0.05;0.05;;;;;;;11.81;82.28;100060.88;15819809;28;20028;-47
2023/11/20 14:03:52;;;;;;;0.13;0.13;;;;;;;11.90;82.20;100059.50;15811172;28;20097;-52
2023/11/20 14:11:30;;;;;;;0.98;0.55;;;;;;;11.22;83.94;100027.78;15792928;28;20525;-49
2023/11/20 14:19:04;;;;;;;0.00;0.00;;;;;;;11.33;83.80;100075.34;15799351;28;20051;-49
2023/11/20 14:26:39;;;;;;;0.00;0.00;;;;;;;11.17;85.23;100082.19;15762650;28;20052;-47
2023/11/20 14:34:13;;;;;;;0.00;0.00;;;;;;;10.92;86.15;100084.25;15803373;28;20044;-50
2023/11/20 14:41:48;;;;;;;0.00;0.00;;;;;;;10.71;87.98;100094.41;15804201;28;20040;-47
2023/11/20 14:49:21;;;;;;;0.03;0.03;;;;;;;10.62;87.52;100092.28;15774454;28;20502;-50
2023/11/20 14:56:56;;;;;;;;;;;;;;;10.71;86.79;100099.78;15803273;28;20105;-49
2023/11/20 15:04:29;;;;;;;0.00;0.00;;;;;;;11.30;82.94;100104.56;15783844;28;19926;-50
2023/11/20 15:12:08;;;;;;;0.00;0.00;;;;;;;11.07;82.39;100103.44;15799263;28;20621;-47
2023/11/20 15:19:42;;;;;;;0.00;0.00;;;;;;;10.74;83.54;100111.94;15801554;28;20094;-47
2023/11/20 15:27:18;;;;;;;0.00;0.00;;;;;;;10.42;85.39;100127.41;15801298;28;20036;-48
2023/11/20 15:34:53;;;;;;;0.00;0.00;;;;;;;9.80;87.38;100103.28;15777156;28;20467;-50
2023/11/20 15:42:28;;;;;;;0.17;0.17;;;;;;;10.20;86.79;100148.44;15775623;28;20379;-50
2023/11/20 15:50:02;;;;;;;0.47;0.30;;;;;;;10.49;85.27;100149.59;15809581;28;20044;-51
2023/11/20 15:57:38;;;;;;;0.00;0.00;;;;;;;10.42;87.17;100151.56;15804263;28;20206;-50
2023/11/20 16:05:13;;;;;;;0.00;0.00;;;;;;;10.07;86.72;100154.78;15796253;28;20505;-49
2023/11/20 16:12:49;;;;;;;0.00;0.00;;;;;;;10.17;87.16;100155.09;15785362;28;20052;-48
2023/11/20 16:20:24;;;;;;;0.00;0.00;;;;;;;9.91;88.92;100163.38;15797339;28;20127;-50
2023/11/20 16:28:01;;;;;;;0.00;0.00;;;;;;;9.94;88.02;100168.31;15782161;28;20079;-49
2023/11/20 16:35:36;;;;;;;1.25;0.43;;;;;;;9.90;88.22;100175.16;15802893;28;20032;-48
2023/11/20 16:43:14;;;;;;;1.67;0.38;;;;;;;10.22;86.31;100174.03;15798938;28;20691;-49
2023/11/20 16:50:49;;;;;;;0.00;0.00;;;;;;;9.83;87.73;100183.22;15798782;28;20075;-50
2023/11/20 16:58:26;;;;;;;0.00;0.00;;;;;;;9.71;87.78;100188.50;15788091;28;20479;-49
2023/11/20 17:06:00;;;;;;;0.00;0.00;;;;;;;9.69;88.01;100195.91;15793944;28;20048;-52
2023/11/20 17:13:35;;;;;;;0.40;0.40;;;;;;;9.42;88.67;100192.63;15797777;28;20044;-51
2023/11/20 17:21:09;;;;;;;0.25;0.22;;;;;;;9.33;88.85;100201.13;15784254;28;20334;-49
2023/11/20 17:28:43;;;;;;;0.45;0.28;;;;;;;9.24;89.14;100200.56;15787521;28;20048;-51
2023/11/20 17:36:17;;;;;;;0.10;0.10;;;;;;;9.20;89.10;100210.88;15815040;28;20107;-50
2023/11/20 17:43:54;;;;;;;0.00;0.00;;;;;;;9.29;89.16;100229.38;15797820;28;20044;-49
2023/11/20 17:51:28;;;;;;;0.13;0.13;;;;;;;9.40;88.21;100226.81;15782338;28;20048;-57
2023/11/20 17:59:05;;;;;;;0.35;0.32;;;;;;;9.68;88.13;100237.16;15812301;28;20074;-48
2023/11/20 18:06:39;;;;;;;0.00;0.00;;;;;;;9.57;86.73;100242.41;15809061;28;20135;-49
2023/11/20 18:14:14;;;;;;;0.00;0.00;;;;;;;9.64;86.58;100246.66;15808262;28;20055;-54
2023/11/20 18:21:51;;;;;;;0.20;0.20;;;;;;;9.34;87.48;100245.63;15808784;28;20048;-50
2023/11/20 18:29:28;;;;;;;0.00;0.00;;;;;;;9.14;88.42;100265.28;15807894;28;20044;-51
2023/11/20 18:37:03;;;;;;;0.00;0.00;;;;;;;9.08;88.80;100270.66;15788019;28;20139;-49
2023/11/20 18:44:38;;;;;;;0.00;0.00;;;;;;;9.13;87.96;100265.47;15812930;28;20071;-51
2023/11/20 18:52:11;;;;;;;0.00;0.00;;;;;;;8.92;88.84;100266.59;15788395;28;20047;-46
2023/11/20 18:59:46;;;;;;;0.10;0.10;;;;;;;8.83;88.25;100268.69;15816188;28;20044;-49
2023/11/20 19:07:20;;;;;;;0.52;0.52;;;;;;;8.73;88.79;100273.66;15794829;28;20098;-50
2023/11/20 19:14:56;;;;;;;0.28;0.28;;;;;;;8.86;87.93;100276.31;15805254;28;20067;-48
2023/11/20 19:22:31;;;;;;;14.05;0.65;;;;;;;8.72;88.23;100289.91;15804573;28;20051;-48
2023/11/20 19:30:09;;;;;;;0.00;0.00;;;;;;;8.52;88.14;100293.44;15805010;23;20048;-72
2023/11/20 19:37:43;;;;;;;0.00;0.00;;;;;;;8.69;87.58;100301.84;15737747;28;20118;-73
2023/11/20 19:45:20;;;;;;;0.75;0.75;;;;;;;8.80;87.61;100298.53;15737757;28;20032;-71
2023/11/20 19:52:54;;;;;;;0.10;0.10;;;;;;;9.02;86.11;100296.41;15741434;28;20048;-73
2023/11/20 20:00:30;;;;;;;0.00;0.00;;;;;;;8.95;86.72;100303.63;15736508;28;20131;-73
2023/11/20 20:08:04;;;;;;;0.00;0.00;;;;;;;8.62;87.61;100303.69;15717934;28;20197;-71
2023/11/20 20:15:39;;;;;;;1.00;0.32;;;;;;;8.68;86.83;100305.56;15736201;28;20052;-70
2023/11/20 20:23:13;;;;;;;0.00;0.00;;;;;;;8.97;86.14;100309.63;15735791;28;20582;-71
2023/11/20 20:30:48;;;;;;;0.00;0.00;;;;;;;9.15;84.58;100322.34;15735893;28;20059;-73
2023/11/20 20:38:22;;;;;;;0.00;0.00;;;;;;;8.53;87.43;100321.00;15735145;28;20033;-71
2023/11/20 20:45:56;;;;;;;0.00;0.00;;;;;;;9.26;84.88;100324.34;15735355;28;20558;-72
2023/11/20 20:53:29;;;;;;;0.17;0.17;;;;;;;8.86;86.21;100337.84;15738368;28;20042;-70
2023/11/20 21:01:05;;;;;;;0.00;0.00;;;;;;;8.91;86.07;100326.53;15734013;28;20587;-71
2023/11/20 21:08:38;;;;;;;10.88;1.65;;;;;;;8.82;86.91;100309.88;15734229;28;20118;-71
2023/11/20 21:16:13;;;;;;;0.75;0.43;;;;;;;8.56;87.17;100323.28;15716661;28;20076;-73
2023/11/20 21:23:46;;;;;;;0.15;0.15;;;;;;;8.92;86.21;100326.31;15744310;28;20104;-71
2023/11/20 21:31:22;;;;;;;0.30;0.30;;;;;;;8.82;86.01;100336.63;15741584;28;20075;-72
2023/11/20 21:38:55;;;;;;;0.03;0.03;;;;;;;8.66;86.37;100337.88;15745584;28;20048;-72
2023/11/20 21:46:30;;;;;;;0.00;0.00;;;;;;;8.78;86.08;100337.25;15737517;28;20054;-71
2023/11/20 21:54:07;;;;;;;0.00;0.00;;;;;;;8.82;85.19;100314.41;15746074;28;20067;-71
2023/11/20 22:01:43;;;;;;;0.57;0.57;;;;;;;8.99;85.03;100338.84;15747887;28;20053;-70
2023/11/20 22:09:18;;;;;;;0.00;0.00;;;;;;;8.49;87.31;100354.56;15732859;28;20051;-73
2023/11/20 22:16:53;;;;;;;6.03;2.00;;;;;;;8.82;86.19;100344.66;15754455;28;20124;-73
2023/11/20 22:24:29;;;;;;;0.00;0.00;;;;;;;8.60;87.53;100357.44;15728409;28;20538;-71
2023/11/20 22:32:04;;;;;;;0.47;0.47;;;;;;;8.58;87.79;100353.31;15741813;28;20460;-72
2023/11/20 22:39:38;;;;;;;0.00;0.00;;;;;;;8.27;88.65;100353.91;15742318;28;20048;-72
2023/11/20 22:47:15;;;;;;;0.00;0.00;;;;;;;8.80;87.66;100348.56;15745281;28;20036;-71
2023/11/20 22:54:48;;;;;;;0.00;0.00;;;;;;;8.83;87.43;100342.78;15745513;28;20152;-72
2023/11/20 23:02:24;;;;;;;0.00;0.00;;;;;;;8.63;87.81;100358.88;15739696;28;20067;-72
2023/11/20 23:09:58;;;;;;;0.00;0.00;;;;;;;8.56;88.67;100360.72;15739304;28;20511;-72
2023/11/20 23:17:33;;;;;;;0.00;0.00;;;;;;;8.68;87.23;100357.22;15739660;28;20040;-73
2023/11/20 23:25:07;;;;;;;0.00;0.00;;;;;;;8.61;87.57;100359.06;15738941;28;20032;-71
2023/11/20 23:32:42;;;;;;;0.00;0.00;;;;;;;8.82;87.34;100352.69;15738893;28;20048;-72
2023/11/20 23:40:15;;;;;;;15.43;0.90;;;;;;;9.03;86.89;100361.50;15738574;28;20048;-71
2023/11/20 23:47:50;;;;;;;0.00;0.00;;;;;;;8.80;87.16;100369.97;15737476;28;20397;-72
2023/11/20 23:55:24;;;;;;;0.00;0.00;;;;;;;8.63;87.34;100369.59;15740664;28;20612;-71
